sensor_id;sensor_type;location;lat;lon;timestamp;pressure;altitude;pressure_sealevel;temperature;humidity
76627;BME280;65519;53.230;10.390;2023-03-16T00:00:02;101715.94;;;0.43;79.38
76627;BME280;65519;53.230;10.390;2023-03-16T00:02:29;101710.09;;;0.62;79.18
76627;BME280;65519;53.230;10.390;2023-03-16T00:04:54;101707.25;;;0.56;78.36
76627;BME280;65519;53.230;10.390;2023-03-16T00:07:20;101711.44;;;0.58;78.31
76627;BME280;65519;53.230;10.390;2023-03-16T00:09:45;101712.94;;;0.38;78.14
76627;BME280;65519;53.230;10.390;2023-03-16T00:12:14;101709.50;;;0.52;78.70
76627;BME280;65519;53.230;10.390;2023-03-16T00:14:42;101715.09;;;0.43;78.49
76627;BME280;65519;53.230;10.390;2023-03-16T00:17:09;101716.16;;;0.56;78.30
76627;BME280;65519;53.230;10.390;2023-03-16T00:19:34;101710.31;;;0.30;78.91
76627;BME280;65519;53.230;10.390;2023-03-16T00:22:00;101714.66;;;0.31;79.50
76627;BME280;65519;53.230;10.390;2023-03-16T00:24:25;101715.09;;;0.43;79.02
76627;BME280;65519;53.230;10.390;2023-03-16T00:26:51;101729.75;;;0.32;78.74
76627;BME280;65519;53.230;10.390;2023-03-16T00:29:19;101729.53;;;0.03;79.79
76627;BME280;65519;53.230;10.390;2023-03-16T00:31:47;101728.59;;;-0.05;80.30
76627;BME280;65519;53.230;10.390;2023-03-16T00:34:12;101721.22;;;-0.03;80.38
76627;BME280;65519;53.230;10.390;2023-03-16T00:36:39;101723.94;;;0.20;79.48
76627;BME280;65519;53.230;10.390;2023-03-16T00:39:07;101719.88;;;-0.07;79.70
76627;BME280;65519;53.230;10.390;2023-03-16T00:41:35;101719.38;;;-0.10;80.05
76627;BME280;65519;53.230;10.390;2023-03-16T00:44:05;101720.59;;;-0.21;79.55
76627;BME280;65519;53.230;10.390;2023-03-16T00:46:30;101719.88;;;-0.07;80.00
76627;BME280;65519;53.230;10.390;2023-03-16T00:48:56;101716.41;;;0.16;79.21
76627;BME280;65519;53.230;10.390;2023-03-16T00:51:21;101722.44;;;0.18;78.31
76627;BME280;65519;53.230;10.390;2023-03-16T00:53:48;101723.28;;;0.18;78.48
76627;BME280;65519;53.230;10.390;2023-03-16T00:56:14;101718.88;;;0.25;78.31
76627;BME280;65519;53.230;10.390;2023-03-16T00:58:40;101719.03;;;0.24;78.23
76627;BME280;65519;53.230;10.390;2023-03-16T01:01:18;101726.78;;;0.19;77.65
76627;BME280;65519;53.230;10.390;2023-03-16T01:03:43;101729.78;;;-0.15;78.87
76627;BME280;65519;53.230;10.390;2023-03-16T01:06:12;101732.13;;;-0.12;79.30
76627;BME280;65519;53.230;10.390;2023-03-16T01:08:40;101731.78;;;-0.09;79.66
76627;BME280;65519;53.230;10.390;2023-03-16T01:11:11;101725.00;;;0.03;79.39
76627;BME280;65519;53.230;10.390;2023-03-16T01:13:38;101725.84;;;0.04;78.60
76627;BME280;65519;53.230;10.390;2023-03-16T01:16:05;101717.16;;;0.02;78.80
76627;BME280;65519;53.230;10.390;2023-03-16T01:18:31;101711.88;;;-0.15;79.78
76627;BME280;65519;53.230;10.390;2023-03-16T01:21:03;101715.41;;;-0.14;79.68
76627;BME280;65519;53.230;10.390;2023-03-16T01:23:29;101714.84;;;-0.10;79.74
76627;BME280;65519;53.230;10.390;2023-03-16T01:25:58;101717.06;;;-0.21;79.81
76627;BME280;65519;53.230;10.390;2023-03-16T01:28:27;101712.28;;;-0.42;80.61
76627;BME280;65519;53.230;10.390;2023-03-16T01:30:59;101713.97;;;-0.33;80.43
76627;BME280;65519;53.230;10.390;2023-03-16T01:33:26;101709.94;;;-0.37;80.72
76627;BME280;65519;53.230;10.390;2023-03-16T01:35:57;101706.00;;;-0.57;81.21
76627;BME280;65519;53.230;10.390;2023-03-16T01:38:23;101703.72;;;-0.77;81.36
76627;BME280;65519;53.230;10.390;2023-03-16T01:40:50;101693.94;;;-0.61;81.65
76627;BME280;65519;53.230;10.390;2023-03-16T01:43:21;101693.06;;;-0.46;80.76
76627;BME280;65519;53.230;10.390;2023-03-16T01:51:16;101697.41;;;-0.37;79.53
76627;BME280;65519;53.230;10.390;2023-03-16T01:53:46;101692.69;;;-0.34;79.99
76627;BME280;65519;53.230;10.390;2023-03-16T01:56:16;101686.38;;;-0.11;79.75
76627;BME280;65519;53.230;10.390;2023-03-16T01:58:43;101682.75;;;-0.65;80.27
76627;BME280;65519;53.230;10.390;2023-03-16T02:01:10;101693.56;;;-0.50;80.56
76627;BME280;65519;53.230;10.390;2023-03-16T02:03:37;101689.53;;;-0.38;79.80
76627;BME280;65519;53.230;10.390;2023-03-16T02:06:17;101690.22;;;-0.44;80.59
76627;BME280;65519;53.230;10.390;2023-03-16T02:08:43;101695.63;;;-0.21;79.59
76627;BME280;65519;53.230;10.390;2023-03-16T02:11:10;101688.53;;;-0.06;79.09
76627;BME280;65519;53.230;10.390;2023-03-16T02:13:36;101687.44;;;-0.20;78.33
76627;BME280;65519;53.230;10.390;2023-03-16T02:16:06;101693.63;;;-0.19;78.10
76627;BME280;65519;53.230;10.390;2023-03-16T02:18:33;101690.03;;;-0.34;78.54
76627;BME280;65519;53.230;10.390;2023-03-16T02:23:30;101684.34;;;-0.40;79.00
76627;BME280;65519;53.230;10.390;2023-03-16T02:26:01;101692.88;;;-0.36;79.16
76627;BME280;65519;53.230;10.390;2023-03-16T02:31:13;101686.38;;;-0.50;79.18
76627;BME280;65519;53.230;10.390;2023-03-16T02:33:39;101676.13;;;-0.38;78.88
76627;BME280;65519;53.230;10.390;2023-03-16T02:36:05;101676.78;;;-0.36;78.40
76627;BME280;65519;53.230;10.390;2023-03-16T02:38:30;101676.63;;;-0.34;78.66
76627;BME280;65519;53.230;10.390;2023-03-16T02:41:14;101674.78;;;-0.42;78.56
76627;BME280;65519;53.230;10.390;2023-03-16T02:43:43;101670.44;;;-0.43;78.86
76627;BME280;65519;53.230;10.390;2023-03-16T02:46:12;101677.13;;;-0.39;78.22
76627;BME280;65519;53.230;10.390;2023-03-16T02:48:50;101677.25;;;-0.71;79.62
76627;BME280;65519;53.230;10.390;2023-03-16T02:51:19;101674.81;;;-0.97;79.27
76627;BME280;65519;53.230;10.390;2023-03-16T02:53:44;101675.28;;;-1.02;79.62
76627;BME280;65519;53.230;10.390;2023-03-16T02:56:10;101663.25;;;-0.98;80.25
76627;BME280;65519;53.230;10.390;2023-03-16T02:58:36;101670.91;;;-0.79;79.36
76627;BME280;65519;53.230;10.390;2023-03-16T03:01:01;101671.25;;;-0.82;80.04
76627;BME280;65519;53.230;10.390;2023-03-16T03:03:27;101662.53;;;-0.84;79.37
76627;BME280;65519;53.230;10.390;2023-03-16T03:05:53;101674.88;;;-0.58;78.75
76627;BME280;65519;53.230;10.390;2023-03-16T03:08:18;101685.03;;;-0.54;78.71
76627;BME280;65519;53.230;10.390;2023-03-16T03:10:47;101682.56;;;-0.55;78.39
76627;BME280;65519;53.230;10.390;2023-03-16T03:13:12;101682.06;;;-0.59;78.31
76627;BME280;65519;53.230;10.390;2023-03-16T03:15:38;101681.19;;;-0.51;77.94
76627;BME280;65519;53.230;10.390;2023-03-16T03:18:05;101682.19;;;-0.52;78.08
76627;BME280;65519;53.230;10.390;2023-03-16T03:20:30;101682.56;;;-0.63;78.44
76627;BME280;65519;53.230;10.390;2023-03-16T03:22:56;101685.97;;;-0.86;79.17
76627;BME280;65519;53.230;10.390;2023-03-16T03:25:21;101686.31;;;-0.97;79.32
76627;BME280;65519;53.230;10.390;2023-03-16T03:27:48;101685.09;;;-0.70;79.16
76627;BME280;65519;53.230;10.390;2023-03-16T03:30:17;101691.34;;;-1.02;79.25
76627;BME280;65519;53.230;10.390;2023-03-16T03:32:43;101698.19;;;-1.07;79.67
76627;BME280;65519;53.230;10.390;2023-03-16T03:35:10;101689.16;;;-1.06;79.96
76627;BME280;65519;53.230;10.390;2023-03-16T03:37:42;101685.97;;;-0.86;78.84
76627;BME280;65519;53.230;10.390;2023-03-16T03:40:10;101687.31;;;-0.82;79.32
76627;BME280;65519;53.230;10.390;2023-03-16T03:42:36;101685.63;;;-0.83;78.89
76627;BME280;65519;53.230;10.390;2023-03-16T03:45:02;101689.13;;;-0.66;79.25
76627;BME280;65519;53.230;10.390;2023-03-16T03:47:27;101689.63;;;-0.70;77.95
76627;BME280;65519;53.230;10.390;2023-03-16T03:49:52;101691.94;;;-0.59;78.61
76627;BME280;65519;53.230;10.390;2023-03-16T03:52:18;101691.28;;;-0.69;78.19
76627;BME280;65519;53.230;10.390;2023-03-16T03:54:43;101693.44;;;-0.57;78.03
76627;BME280;65519;53.230;10.390;2023-03-16T03:57:09;101698.63;;;-0.55;77.77
76627;BME280;65519;53.230;10.390;2023-03-16T03:59:35;101698.63;;;-0.55;77.32
76627;BME280;65519;53.230;10.390;2023-03-16T04:02:07;101704.66;;;-0.61;78.47
76627;BME280;65519;53.230;10.390;2023-03-16T04:04:32;101696.13;;;-0.57;77.85
76627;BME280;65519;53.230;10.390;2023-03-16T04:06:58;101698.63;;;-0.55;77.91
76627;BME280;65519;53.230;10.390;2023-03-16T04:09:24;101701.63;;;-0.50;77.86
76627;BME280;65519;53.230;10.390;2023-03-16T04:11:49;101699.09;;;-0.52;78.16
76627;BME280;65519;53.230;10.390;2023-03-16T04:14:15;101690.78;;;-0.73;78.65
76627;BME280;65519;53.230;10.390;2023-03-16T04:16:40;101700.31;;;-0.54;77.47
76627;BME280;65519;53.230;10.390;2023-03-16T04:19:08;101696.59;;;-0.53;77.88
76627;BME280;65519;53.230;10.390;2023-03-16T04:21:34;101697.63;;;-0.54;78.96
76627;BME280;65519;53.230;10.390;2023-03-16T04:23:59;101696.59;;;-0.53;77.80
76627;BME280;65519;53.230;10.390;2023-03-16T04:26:27;101697.41;;;-0.37;77.54
76627;BME280;65519;53.230;10.390;2023-03-16T04:28:53;101693.38;;;-0.41;77.63
76627;BME280;65519;53.230;10.390;2023-03-16T04:31:19;101693.94;;;-0.61;77.58
76627;BME280;65519;53.230;10.390;2023-03-16T04:33:44;101688.75;;;-0.55;78.09
76627;BME280;65519;53.230;10.390;2023-03-16T04:36:09;101690.28;;;-0.68;77.64
76627;BME280;65519;53.230;10.390;2023-03-16T04:38:36;101689.75;;;-0.56;78.02
76627;BME280;65519;53.230;10.390;2023-03-16T04:41:02;101691.97;;;-0.76;78.31
76627;BME280;65519;53.230;10.390;2023-03-16T04:43:29;101693.50;;;-0.81;78.32
76627;BME280;65519;53.230;10.390;2023-03-16T04:45:59;101689.75;;;-0.64;77.94
76627;BME280;65519;53.230;10.390;2023-03-16T04:48:25;101685.47;;;-0.81;78.59
76627;BME280;65519;53.230;10.390;2023-03-16T04:50:50;101686.41;;;-0.58;77.89
76627;BME280;65519;53.230;10.390;2023-03-16T04:53:15;101693.75;;;-0.52;77.67
76627;BME280;65519;53.230;10.390;2023-03-16T04:55:43;101695.13;;;-0.56;77.91
76627;BME280;65519;53.230;10.390;2023-03-16T04:58:08;101696.94;;;-0.48;77.78
76627;BME280;65519;53.230;10.390;2023-03-16T05:00:33;101693.91;;;-0.45;77.07
76627;BME280;65519;53.230;10.390;2023-03-16T05:02:59;101700.56;;;-0.41;76.70
76627;BME280;65519;53.230;10.390;2023-03-16T05:05:24;101693.59;;;-0.58;77.69
76627;BME280;65519;53.230;10.390;2023-03-16T05:07:49;101702.78;;;-0.53;77.45
76627;BME280;65519;53.230;10.390;2023-03-16T05:10:16;101696.97;;;-0.56;77.44
76627;BME280;65519;53.230;10.390;2023-03-16T05:12:43;101698.28;;;-0.52;76.95
76627;BME280;65519;53.230;10.390;2023-03-16T05:15:09;101693.28;;;-0.55;76.91
76627;BME280;65519;53.230;10.390;2023-03-16T05:17:34;101691.97;;;-0.76;77.93
76627;BME280;65519;53.230;10.390;2023-03-16T05:20:00;101691.28;;;-0.69;77.84
76627;BME280;65519;53.230;10.390;2023-03-16T05:22:26;101684.44;;;-0.72;78.14
76627;BME280;65519;53.230;10.390;2023-03-16T05:24:52;101680.88;;;-0.56;77.88
76627;BME280;65519;53.230;10.390;2023-03-16T05:27:17;101682.94;;;-0.75;78.28
76627;BME280;65519;53.230;10.390;2023-03-16T05:29:43;101676.56;;;-0.65;77.97
76627;BME280;65519;53.230;10.390;2023-03-16T05:32:11;101671.72;;;-0.70;78.13
76627;BME280;65519;53.230;10.390;2023-03-16T05:34:36;101676.06;;;-0.69;77.61
76627;BME280;65519;53.230;10.390;2023-03-16T05:37:02;101675.22;;;-0.69;77.62
76627;BME280;65519;53.230;10.390;2023-03-16T05:39:28;101676.94;;;-0.77;78.03
76627;BME280;65519;53.230;10.390;2023-03-16T05:41:55;101678.91;;;-0.70;78.64
76627;BME280;65519;53.230;10.390;2023-03-16T05:44:21;101682.25;;;-0.68;78.78
76627;BME280;65519;53.230;10.390;2023-03-16T05:46:46;101681.94;;;-0.65;78.13
76627;BME280;65519;53.230;10.390;2023-03-16T05:49:12;101678.06;;;-0.71;77.98
76627;BME280;65519;53.230;10.390;2023-03-16T05:51:37;101673.16;;;-0.51;77.12
76627;BME280;65519;53.230;10.390;2023-03-16T05:54:02;101686.50;;;-0.43;76.84
76627;BME280;65519;53.230;10.390;2023-03-16T05:56:29;101686.34;;;-0.33;77.44
76627;BME280;65519;53.230;10.390;2023-03-16T05:58:55;101681.44;;;-0.30;76.99
76627;BME280;65519;53.230;10.390;2023-03-16T06:01:22;101693.78;;;-0.21;77.49
76627;BME280;65519;53.230;10.390;2023-03-16T06:03:48;101697.47;;;-0.14;76.40
76627;BME280;65519;53.230;10.390;2023-03-16T06:06:16;101701.94;;;-0.53;76.94
76627;BME280;65519;53.230;10.390;2023-03-16T06:08:42;101696.72;;;-0.39;77.61
76627;BME280;65519;53.230;10.390;2023-03-16T06:11:08;101702.72;;;-0.28;77.52
76627;BME280;65519;53.230;10.390;2023-03-16T06:13:33;101707.09;;;-0.35;77.58
76627;BME280;65519;53.230;10.390;2023-03-16T06:15:59;101704.34;;;-0.11;77.43
76627;BME280;65519;53.230;10.390;2023-03-16T06:18:25;101702.84;;;-0.14;75.89
76627;BME280;65519;53.230;10.390;2023-03-16T06:20:51;101690.38;;;-0.07;76.09
76627;BME280;65519;53.230;10.390;2023-03-16T06:23:16;101703.78;;;-0.07;76.37
76627;BME280;65519;53.230;10.390;2023-03-16T06:25:46;101702.34;;;-0.17;76.35
76627;BME280;65519;53.230;10.390;2023-03-16T06:28:12;101701.16;;;-0.15;77.03
76627;BME280;65519;53.230;10.390;2023-03-16T06:30:38;101704.63;;;-0.06;76.08
76627;BME280;65519;53.230;10.390;2023-03-16T06:33:03;101703.75;;;0.02;76.93
76627;BME280;65519;53.230;10.390;2023-03-16T06:35:29;101698.97;;;0.20;76.22
76627;BME280;65519;53.230;10.390;2023-03-16T06:37:54;101702.84;;;0.17;76.15
76627;BME280;65519;53.230;10.390;2023-03-16T06:40:19;101708.38;;;0.16;76.12
76627;BME280;65519;53.230;10.390;2023-03-16T06:42:46;101704.34;;;0.20;76.52
76627;BME280;65519;53.230;10.390;2023-03-16T06:45:11;101711.50;;;-0.04;76.91
76627;BME280;65519;53.230;10.390;2023-03-16T06:47:37;101708.03;;;0.19;76.39
76627;BME280;65519;53.230;10.390;2023-03-16T06:50:03;101718.63;;;0.35;76.56
76627;BME280;65519;53.230;10.390;2023-03-16T06:52:29;101717.41;;;0.15;76.42
76627;BME280;65519;53.230;10.390;2023-03-16T06:54:54;101719.03;;;-0.07;77.44
76627;BME280;65519;53.230;10.390;2023-03-16T06:57:19;101726.13;;;0.17;77.51
76627;BME280;65519;53.230;10.390;2023-03-16T06:59:45;101728.91;;;0.31;77.00
76627;BME280;65519;53.230;10.390;2023-03-16T07:02:11;101729.03;;;0.38;76.62
76627;BME280;65519;53.230;10.390;2023-03-16T07:04:38;101730.75;;;0.31;77.00
76627;BME280;65519;53.230;10.390;2023-03-16T07:07:03;101734.13;;;0.25;77.00
76627;BME280;65519;53.230;10.390;2023-03-16T07:09:28;101735.44;;;0.29;76.91
76627;BME280;65519;53.230;10.390;2023-03-16T07:11:54;101734.13;;;0.25;76.81
76627;BME280;65519;53.230;10.390;2023-03-16T07:14:19;101728.06;;;0.31;76.52
76627;BME280;65519;53.230;10.390;2023-03-16T07:16:47;101739.34;;;0.49;76.69
76627;BME280;65519;53.230;10.390;2023-03-16T07:19:13;101734.69;;;0.66;76.79
76627;BME280;65519;53.230;10.390;2023-03-16T07:21:38;101735.13;;;0.78;75.78
76627;BME280;65519;53.230;10.390;2023-03-16T07:24:06;101744.59;;;0.65;75.88
76627;BME280;65519;53.230;10.390;2023-03-16T07:26:31;101746.16;;;0.83;76.72
76627;BME280;65519;53.230;10.390;2023-03-16T07:28:57;101748.25;;;0.72;76.32
76627;BME280;65519;53.230;10.390;2023-03-16T07:31:23;101752.06;;;0.78;75.76
76627;BME280;65519;53.230;10.390;2023-03-16T07:33:49;101750.34;;;0.85;76.31
76627;BME280;65519;53.230;10.390;2023-03-16T07:36:14;101749.53;;;0.77;75.76
76627;BME280;65519;53.230;10.390;2023-03-16T07:38:40;101749.72;;;0.98;75.60
76627;BME280;65519;53.230;10.390;2023-03-16T07:41:06;101754.31;;;1.12;75.48
76627;BME280;65519;53.230;10.390;2023-03-16T07:43:32;101752.75;;;1.18;74.61
76627;BME280;65519;53.230;10.390;2023-03-16T07:45:57;101759.19;;;1.08;75.19
76627;BME280;65519;53.230;10.390;2023-03-16T07:48:23;101745.00;;;1.37;74.70
76627;BME280;65519;53.230;10.390;2023-03-16T07:50:49;101742.53;;;1.51;74.43
76627;BME280;65519;53.230;10.390;2023-03-16T07:53:14;101751.66;;;1.41;73.60
76627;BME280;65519;53.230;10.390;2023-03-16T07:55:41;101744.25;;;1.29;74.17
76627;BME280;65519;53.230;10.390;2023-03-16T07:58:07;101748.41;;;1.31;74.12
76627;BME280;65519;53.230;10.390;2023-03-16T08:00:34;101744.91;;;1.45;73.50
76627;BME280;65519;53.230;10.390;2023-03-16T08:03:00;101745.69;;;1.69;73.45
76627;BME280;65519;53.230;10.390;2023-03-16T08:05:26;101747.09;;;1.94;72.76
76627;BME280;65519;53.230;10.390;2023-03-16T08:07:52;101743.75;;;1.92;72.34
76627;BME280;65519;53.230;10.390;2023-03-16T08:10:18;101745.31;;;2.01;72.16
76627;BME280;65519;53.230;10.390;2023-03-16T08:12:43;101746.13;;;2.02;72.44
76627;BME280;65519;53.230;10.390;2023-03-16T08:15:09;101747.69;;;2.11;71.47
76627;BME280;65519;53.230;10.390;2023-03-16T08:17:35;101748.25;;;2.06;70.89
76627;BME280;65519;53.230;10.390;2023-03-16T08:20:03;101748.31;;;2.28;71.74
76627;BME280;65519;53.230;10.390;2023-03-16T08:22:34;101754.38;;;2.51;70.39
76627;BME280;65519;53.230;10.390;2023-03-16T08:25:01;101751.84;;;2.64;69.68
76627;BME280;65519;53.230;10.390;2023-03-16T08:27:28;101747.47;;;2.84;68.60
76627;BME280;65519;53.230;10.390;2023-03-16T08:29:54;101748.91;;;2.80;69.32
76627;BME280;65519;53.230;10.390;2023-03-16T08:32:19;101746.78;;;2.76;69.35
76627;BME280;65519;53.230;10.390;2023-03-16T08:34:45;101752.13;;;2.90;68.49
76627;BME280;65519;53.230;10.390;2023-03-16T08:37:11;101751.00;;;3.06;68.03
76627;BME280;65519;53.230;10.390;2023-03-16T08:39:39;101746.06;;;3.10;68.08
76627;BME280;65519;53.230;10.390;2023-03-16T08:42:06;101745.75;;;3.26;67.29
76627;BME280;65519;53.230;10.390;2023-03-16T08:44:32;101754.56;;;3.35;67.95
76627;BME280;65519;53.230;10.390;2023-03-16T08:46:58;101751.41;;;3.31;67.68
76627;BME280;65519;53.230;10.390;2023-03-16T08:49:25;101758.03;;;3.56;66.23
76627;BME280;65519;53.230;10.390;2023-03-16T08:51:51;101747.38;;;3.76;65.85
76627;BME280;65519;53.230;10.390;2023-03-16T08:54:16;101749.47;;;3.81;65.75
76627;BME280;65519;53.230;10.390;2023-03-16T08:56:42;101751.22;;;3.95;64.36
76627;BME280;65519;53.230;10.390;2023-03-16T08:59:08;101752.50;;;4.06;65.78
76627;BME280;65519;53.230;10.390;2023-03-16T09:01:34;101744.28;;;4.20;63.41
76627;BME280;65519;53.230;10.390;2023-03-16T09:03:59;101744.75;;;4.30;63.03
76627;BME280;65519;53.230;10.390;2023-03-16T09:06:25;101746.88;;;4.48;62.91
76627;BME280;65519;53.230;10.390;2023-03-16T09:08:51;101736.88;;;4.42;61.65
76627;BME280;65519;53.230;10.390;2023-03-16T09:11:18;101734.25;;;4.68;62.41
76627;BME280;65519;53.230;10.390;2023-03-16T09:13:44;101729.50;;;4.90;62.37
76627;BME280;65519;53.230;10.390;2023-03-16T09:16:11;101732.81;;;4.92;60.83
76627;BME280;65519;53.230;10.390;2023-03-16T09:18:37;101728.69;;;4.96;60.80
76627;BME280;65519;53.230;10.390;2023-03-16T09:21:04;101723.06;;;5.24;60.01
76627;BME280;65519;53.230;10.390;2023-03-16T09:23:31;101725.94;;;5.42;59.12
76627;BME280;65519;53.230;10.390;2023-03-16T09:25:58;101726.38;;;5.59;59.06
76627;BME280;65519;53.230;10.390;2023-03-16T09:28:24;101726.75;;;5.63;58.02
76627;BME280;65519;53.230;10.390;2023-03-16T09:30:54;101720.69;;;5.80;58.85
76627;BME280;65519;53.230;10.390;2023-03-16T09:33:22;101717.13;;;5.86;57.59
76627;BME280;65519;53.230;10.390;2023-03-16T09:35:48;101710.25;;;6.04;56.91
76627;BME280;65519;53.230;10.390;2023-03-16T09:38:15;101701.66;;;6.07;54.40
76627;BME280;65519;53.230;10.390;2023-03-16T09:40:42;101701.00;;;6.18;53.97
76627;BME280;65519;53.230;10.390;2023-03-16T09:43:32;101707.63;;;6.29;54.74
76627;BME280;65519;53.230;10.390;2023-03-16T09:46:10;101691.78;;;6.32;53.32
76627;BME280;65519;53.230;10.390;2023-03-16T09:48:37;101692.47;;;6.59;55.49
76627;BME280;65519;53.230;10.390;2023-03-16T09:51:06;101691.09;;;6.75;53.90
76627;BME280;65519;53.230;10.390;2023-03-16T09:53:36;101690.81;;;6.83;52.21
76627;BME280;65519;53.230;10.390;2023-03-16T10:05:57;101675.69;;;7.43;44.24
76627;BME280;65519;53.230;10.390;2023-03-16T10:08:31;101678.34;;;7.68;45.54
76627;BME280;65519;53.230;10.390;2023-03-16T10:19:17;101658.91;;;7.71;40.13
76627;BME280;65519;53.230;10.390;2023-03-16T10:21:45;101676.84;;;7.72;39.32
76627;BME280;65519;53.230;10.390;2023-03-16T10:27:18;101668.91;;;7.70;37.00
76627;BME280;65519;53.230;10.390;2023-03-16T10:29:48;101677.13;;;8.00;38.16
76627;BME280;65519;53.230;10.390;2023-03-16T10:32:16;101665.69;;;7.98;37.05
76627;BME280;65519;53.230;10.390;2023-03-16T10:34:47;101667.47;;;8.04;36.11
76627;BME280;65519;53.230;10.390;2023-03-16T10:37:17;101677.56;;;8.16;34.96
76627;BME280;65519;53.230;10.390;2023-03-16T10:39:44;101664.00;;;8.46;35.49
76627;BME280;65519;53.230;10.390;2023-03-16T10:42:15;101658.75;;;8.62;35.79
76627;BME280;65519;53.230;10.390;2023-03-16T10:44:41;101684.50;;;8.60;32.82
76627;BME280;65519;53.230;10.390;2023-03-16T10:47:17;101672.25;;;8.81;32.99
76627;BME280;65519;53.230;10.390;2023-03-16T10:49:44;101668.91;;;8.67;32.83
76627;BME280;65519;53.230;10.390;2023-03-16T10:55:08;101651.97;;;9.30;31.88
76627;BME280;65519;53.230;10.390;2023-03-16T10:57:36;101662.72;;;9.13;31.13
76627;BME280;65519;53.230;10.390;2023-03-16T11:02:36;101655.44;;;8.60;32.60
76627;BME280;65519;53.230;10.390;2023-03-16T11:10:34;101656.19;;;8.91;29.84
76627;BME280;65519;53.230;10.390;2023-03-16T11:13:21;101625.72;;;9.12;30.37
76627;BME280;65519;53.230;10.390;2023-03-16T11:16:00;101621.22;;;9.29;30.04
76627;BME280;65519;53.230;10.390;2023-03-16T11:18:47;101624.03;;;9.46;30.37
76627;BME280;65519;53.230;10.390;2023-03-16T11:21:20;101622.75;;;9.37;30.24
76627;BME280;65519;53.230;10.390;2023-03-16T11:23:49;101623.75;;;9.71;29.57
76627;BME280;65519;53.230;10.390;2023-03-16T11:26:37;101620.00;;;10.00;29.81
76627;BME280;65519;53.230;10.390;2023-03-16T11:31:40;101604.47;;;10.01;28.46
76627;BME280;65519;53.230;10.390;2023-03-16T11:34:18;101608.06;;;9.89;28.47
76627;BME280;65519;53.230;10.390;2023-03-16T11:47:54;101585.75;;;10.33;27.95
76627;BME280;65519;53.230;10.390;2023-03-16T11:53:14;101590.22;;;10.72;28.05
76627;BME280;65519;53.230;10.390;2023-03-16T12:04:22;101572.16;;;10.66;26.92
76627;BME280;65519;53.230;10.390;2023-03-16T12:09:49;101564.06;;;10.38;27.24
76627;BME280;65519;53.230;10.390;2023-03-16T12:14:55;101553.31;;;10.81;26.57
76627;BME280;65519;53.230;10.390;2023-03-16T12:17:29;101566.09;;;10.64;26.19
76627;BME280;65519;53.230;10.390;2023-03-16T12:20:04;101531.38;;;10.93;25.51
76627;BME280;65519;53.230;10.390;2023-03-16T12:22:38;101543.22;;;10.65;25.25
76627;BME280;65519;53.230;10.390;2023-03-16T12:25:19;101525.31;;;10.69;25.81
76627;BME280;65519;53.230;10.390;2023-03-16T12:27:48;101517.00;;;11.41;26.77
76627;BME280;65519;53.230;10.390;2023-03-16T12:36:15;101527.03;;;11.57;24.76
76627;BME280;65519;53.230;10.390;2023-03-16T12:49:05;101512.25;;;12.02;24.22
76627;BME280;65519;53.230;10.390;2023-03-16T12:51:39;101512.69;;;11.89;24.31
76627;BME280;65519;53.230;10.390;2023-03-16T12:56:46;101492.50;;;11.46;24.00
76627;BME280;65519;53.230;10.390;2023-03-16T12:59:18;101478.03;;;11.94;24.15
76627;BME280;65519;53.230;10.390;2023-03-16T13:01:44;101476.19;;;12.05;24.24
76627;BME280;65519;53.230;10.390;2023-03-16T13:06:47;101457.50;;;11.65;25.10
76627;BME280;65519;53.230;10.390;2023-03-16T13:09:18;101478.97;;;11.78;24.71
76627;BME280;65519;53.230;10.390;2023-03-16T13:11:47;101454.88;;;11.75;25.86
76627;BME280;65519;53.230;10.390;2023-03-16T13:19:44;101461.84;;;11.88;24.75
76627;BME280;65519;53.230;10.390;2023-03-16T13:24:51;101461.84;;;11.88;24.90
76627;BME280;65519;53.230;10.390;2023-03-16T13:27:25;101446.47;;;11.82;24.44
76627;BME280;65519;53.230;10.390;2023-03-16T13:30:16;101466.38;;;11.77;23.75
76627;BME280;65519;53.230;10.390;2023-03-16T13:32:44;101446.75;;;11.58;23.98
76627;BME280;65519;53.230;10.390;2023-03-16T13:35:13;101448.44;;;11.86;24.70
76627;BME280;65519;53.230;10.390;2023-03-16T13:37:41;101437.50;;;11.86;23.87
76627;BME280;65519;53.230;10.390;2023-03-16T13:42:45;101440.47;;;11.09;23.87
76627;BME280;65519;53.230;10.390;2023-03-16T13:45:14;101439.19;;;11.17;24.22
76627;BME280;65519;53.230;10.390;2023-03-16T13:47:43;101430.72;;;10.91;25.09
76627;BME280;65519;53.230;10.390;2023-03-16T13:50:11;101440.59;;;10.97;24.33
76627;BME280;65519;53.230;10.390;2023-03-16T13:52:37;101428.22;;;10.90;24.62
76627;BME280;65519;53.230;10.390;2023-03-16T13:55:20;101422.06;;;11.00;25.31
76627;BME280;65519;53.230;10.390;2023-03-16T13:57:47;101422.41;;;10.81;25.24
76627;BME280;65519;53.230;10.390;2023-03-16T14:02:46;101418.44;;;10.34;26.47
76627;BME280;65519;53.230;10.390;2023-03-16T14:05:26;101416.88;;;10.04;27.52
76627;BME280;65519;53.230;10.390;2023-03-16T14:07:53;101413.22;;;9.82;27.34
76627;BME280;65519;53.230;10.390;2023-03-16T14:10:20;101415.72;;;9.55;28.31
76627;BME280;65519;53.230;10.390;2023-03-16T14:12:57;101413.59;;;9.57;28.22
76627;BME280;65519;53.230;10.390;2023-03-16T14:15:27;101400.16;;;9.50;29.30
76627;BME280;65519;53.230;10.390;2023-03-16T14:18:14;101398.56;;;9.38;29.00
76627;BME280;65519;53.230;10.390;2023-03-16T14:20:41;101403.22;;;9.26;28.78
76627;BME280;65519;53.230;10.390;2023-03-16T14:23:25;101414.44;;;9.29;30.21
76627;BME280;65519;53.230;10.390;2023-03-16T14:25:53;101406.38;;;9.06;29.50
76627;BME280;65519;53.230;10.390;2023-03-16T14:28:26;101402.06;;;9.10;30.02
76627;BME280;65519;53.230;10.390;2023-03-16T14:30:54;101405.31;;;9.07;30.44
76627;BME280;65519;53.230;10.390;2023-03-16T14:33:25;101404.94;;;9.03;30.30
76627;BME280;65519;53.230;10.390;2023-03-16T14:35:55;101392.19;;;9.04;30.92